Time;durP1;ratioP1;P1;durP2;ratioP2;P2;SDS_P1;SDS_P2;PMS_P1;PMS_P2;Temp;Humidity;BMP_temperature;BMP_pressure;BME280_temperature;BME280_humidity;BME280_pressure;Samples;Min_cycle;Max_cycle;Signal;HPM_P1;HPM_P2
2024/01/27 00:00:17;;;;;;;0.33;0.33;;;;;;;7.65;92.97;96957.91;4358367;32;20192;-61
2024/01/27 00:02:43;;;;;;;1.10;1.10;;;;;;;8.07;94.83;96963.75;4362074;32;20248;-61
2024/01/27 00:05:08;;;;;;;4.87;4.40;;;;;;;8.28;92.75;96974.44;4361944;32;20201;-61
2024/01/27 00:07:34;;;;;;;3.60;3.30;;;;;;;8.26;89.17;96973.88;4366657;32;20215;-61
2024/01/27 00:09:59;;;;;;;1.97;1.87;;;;;;;8.46;91.54;96976.09;4354565;32;20246;-61
2024/01/27 00:12:25;;;;;;;5.83;2.40;;;;;;;8.84;92.38;96972.75;4361828;32;20292;-61
2024/01/27 00:14:50;;;;;;;2.17;2.17;;;;;;;8.73;90.36;96970.97;4358660;32;20239;-62
2024/01/27 00:17:16;;;;;;;5.80;2.67;;;;;;;8.47;84.68;96974.25;4351560;32;20248;-62
2024/01/27 00:19:41;;;;;;;5.80;3.37;;;;;;;7.65;85.34;96969.28;4354187;32;20212;-62
2024/01/27 00:22:07;;;;;;;3.13;2.50;;;;;;;7.00;88.58;96977.38;4370380;32;20259;-64
2024/01/27 00:24:33;;;;;;;3.40;1.70;;;;;;;6.77;89.71;96969.44;4369927;32;20224;-61
2024/01/27 00:26:59;;;;;;;2.17;2.00;;;;;;;6.49;90.66;96959.53;4348503;32;20363;-62
2024/01/27 00:29:24;;;;;;;2.37;1.60;;;;;;;6.49;91.33;96957.69;4348580;32;20209;-61
2024/01/27 00:31:50;;;;;;;2.57;1.40;;;;;;;6.62;90.79;96961.97;4360673;32;20308;-61
2024/01/27 00:34:16;;;;;;;0.97;0.97;;;;;;;6.41;92.37;96951.97;4365969;32;20239;-62
2024/01/27 00:36:48;;;;;;;0.87;0.87;;;;;;;5.90;94.82;96957.75;4354876;32;20197;-61
2024/01/27 00:39:14;;;;;;;0.63;0.63;;;;;;;5.66;95.79;96965.50;4366681;32;20184;-62
2024/01/27 00:41:39;;;;;;;4.70;1.80;;;;;;;5.43;97.01;96960.91;4350994;32;20292;-61
2024/01/27 00:44:05;;;;;;;1.37;1.27;;;;;;;5.59;97.55;96956.09;4355941;32;20368;-61
2024/01/27 00:46:30;;;;;;;2.00;1.63;;;;;;;5.59;97.32;96950.84;4368934;32;20189;-61
2024/01/27 00:48:55;;;;;;;1.17;0.67;;;;;;;5.36;98.58;96959.41;4371865;32;20196;-61
2024/01/27 00:51:21;;;;;;;3.37;1.60;;;;;;;5.33;98.66;96965.91;4366331;32;20216;-61
2024/01/27 00:53:46;;;;;;;1.73;1.63;;;;;;;5.27;98.31;96961.50;4367470;32;20212;-61
2024/01/27 00:56:11;;;;;;;2.20;2.00;;;;;;;5.46;98.60;96955.22;4366073;32;20197;-61
2024/01/27 00:58:37;;;;;;;1.83;1.70;;;;;;;5.26;99.26;96954.63;4347523;32;20197;-64
2024/01/27 01:01:03;;;;;;;2.33;2.13;;;;;;;5.27;99.14;96950.97;4362793;32;20193;-61
2024/01/27 01:03:28;;;;;;;3.67;2.53;;;;;;;5.26;99.60;96952.00;4361055;32;20192;-61
2024/01/27 01:05:54;;;;;;;4.93;3.67;;;;;;;5.48;98.69;96965.53;4353375;32;20185;-61
2024/01/27 01:08:19;;;;;;;4.07;3.37;;;;;;;5.03;100.00;96973.69;4366954;32;20188;-61
2024/01/27 01:10:44;;;;;;;5.70;5.17;;;;;;;5.07;100.00;96966.16;4355839;32;20212;-61
2024/01/27 01:13:10;;;;;;;7.43;6.43;;;;;;;4.98;100.00;96975.37;4354423;32;20261;-61
2024/01/27 01:15:36;;;;;;;7.90;7.07;;;;;;;5.06;100.00;96982.97;4365068;32;20192;-61
2024/01/27 01:18:01;;;;;;;8.47;7.67;;;;;;;4.89;100.00;96981.91;4354601;32;20227;-61
2024/01/27 01:20:26;;;;;;;7.70;6.90;;;;;;;4.77;100.00;96990.53;4362474;32;20287;-61
2024/01/27 01:22:52;;;;;;;5.00;4.13;;;;;;;4.87;100.00;96978.69;4359431;32;20207;-61
2024/01/27 01:25:18;;;;;;;4.40;4.00;;;;;;;4.81;100.00;96986.41;4359265;32;20313;-61
2024/01/27 01:27:45;;;;;;;2.73;2.20;;;;;;;4.71;100.00;96974.78;4349693;32;20283;-61
2024/01/27 01:30:10;;;;;;;2.53;2.27;;;;;;;4.61;100.00;96975.25;4360109;32;20343;-61
2024/01/27 01:32:36;;;;;;;2.17;2.03;;;;;;;5.13;100.00;96983.72;4354982;32;20315;-61
2024/01/27 01:35:01;;;;;;;2.03;1.47;;;;;;;4.67;100.00;96984.94;4362095;32;20239;-61
2024/01/27 01:37:26;;;;;;;0.63;0.63;;;;;;;4.65;100.00;96992.22;4360405;32;20287;-61
2024/01/27 01:39:52;;;;;;;1.07;0.90;;;;;;;4.89;100.00;96997.69;4367711;32;20210;-61
2024/01/27 01:42:18;;;;;;;1.03;1.03;;;;;;;4.75;100.00;96992.56;4365829;32;20229;-61
2024/01/27 01:44:43;;;;;;;2.67;0.90;;;;;;;4.62;100.00;96989.22;4362264;32;20193;-61
2024/01/27 01:47:08;;;;;;;0.43;0.43;;;;;;;4.62;100.00;96991.84;4356139;32;20220;-62
2024/01/27 01:49:35;;;;;;;0.97;0.93;;;;;;;4.58;100.00;96994.09;4364073;32;20197;-61
2024/01/27 01:52:01;;;;;;;0.43;0.43;;;;;;;4.56;100.00;96996.16;4369424;32;20215;-62
2024/01/27 01:54:27;;;;;;;1.03;0.93;;;;;;;4.53;100.00;97004.44;4352056;32;20336;-61
2024/01/27 01:56:55;;;;;;;0.60;0.60;;;;;;;4.47;100.00;97010.53;4348783;32;20364;-61
2024/01/27 01:59:20;;;;;;;0.50;0.50;;;;;;;4.51;100.00;97000.41;4351340;32;20284;-62
2024/01/27 02:01:46;;;;;;;0.40;0.40;;;;;;;4.47;100.00;97000.84;4365104;32;20315;-61
2024/01/27 02:04:11;;;;;;;0.20;0.20;;;;;;;4.76;100.00;97009.12;4362698;32;20192;-62
2024/01/27 02:06:37;;;;;;;1.03;0.50;;;;;;;4.48;100.00;97017.41;4363362;32;20220;-61
2024/01/27 02:09:02;;;;;;;0.83;0.73;;;;;;;4.46;100.00;97006.31;4369486;32;20224;-61
2024/01/27 02:11:28;;;;;;;0.80;0.70;;;;;;;4.32;100.00;97010.84;4352768;32;20315;-61
2024/01/27 02:13:53;;;;;;;0.40;0.40;;;;;;;4.34;100.00;97010.66;4347467;32;20254;-61
2024/01/27 02:16:18;;;;;;;0.53;0.53;;;;;;;4.25;100.00;97019.78;4359496;32;20200;-61
2024/01/27 02:18:44;;;;;;;0.30;0.30;;;;;;;4.66;100.00;97030.63;4360848;32;20208;-61
2024/01/27 02:21:09;;;;;;;0.37;0.37;;;;;;;4.45;100.00;97033.59;4351190;32;20254;-61
2024/01/27 02:23:35;;;;;;;2.03;1.03;;;;;;;4.39;100.00;97042.31;4347692;32;20201;-61
2024/01/27 02:26:00;;;;;;;3.30;1.30;;;;;;;4.45;100.00;97036.22;4371121;32;20297;-61
2024/01/27 02:28:25;;;;;;;0.93;0.93;;;;;;;4.30;100.00;97030.47;4364038;32;20220;-61
2024/01/27 02:30:51;;;;;;;0.20;0.20;;;;;;;4.46;100.00;97030.75;4357873;32;20208;-61
2024/01/27 02:33:16;;;;;;;0.40;0.40;;;;;;;4.56;99.57;97027.69;4369865;32;20200;-61
2024/01/27 02:35:43;;;;;;;1.33;0.40;;;;;;;4.48;99.80;97033.97;4346310;32;20232;-61
2024/01/27 02:38:09;;;;;;;0.10;0.10;;;;;;;4.57;99.02;97031.91;4366642;32;20208;-61
2024/01/27 02:40:34;;;;;;;0.40;0.40;;;;;;;4.51;98.75;97024.88;4360295;32;20303;-61
2024/01/27 02:42:59;;;;;;;0.67;0.67;;;;;;;4.49;98.80;97027.72;4360983;32;20212;-61
2024/01/27 02:45:25;;;;;;;3.33;1.13;;;;;;;4.53;98.49;97020.22;4346297;32;20193;-61
2024/01/27 02:47:50;;;;;;;0.93;0.60;;;;;;;4.48;98.51;97027.91;4359375;32;20245;-61
2024/01/27 02:50:15;;;;;;;0.47;0.47;;;;;;;4.61;97.20;97022.56;4347328;32;20212;-62
2024/01/27 02:52:41;;;;;;;0.87;0.83;;;;;;;4.45;98.53;97026.53;4362687;32;20272;-61
2024/01/27 02:55:06;;;;;;;1.70;0.87;;;;;;;4.42;98.48;97023.50;4376223;32;20219;-61
2024/01/27 02:57:32;;;;;;;1.07;1.03;;;;;;;4.34;98.76;97036.91;4353575;32;20204;-61
2024/01/27 02:59:57;;;;;;;1.53;0.37;;;;;;;4.22;99.77;97042.00;4355671;32;20215;-61
2024/01/27 03:02:23;;;;;;;2.67;0.67;;;;;;;4.32;99.38;97029.25;4365917;32;20223;-61
2024/01/27 03:04:48;;;;;;;0.23;0.23;;;;;;;4.41;99.07;97032.41;4356886;32;20225;-61
2024/01/27 03:07:13;;;;;;;0.93;0.83;;;;;;;4.31;99.18;97032.88;4353831;32;20259;-61
2024/01/27 03:09:39;;;;;;;0.30;0.30;;;;;;;4.29;99.57;97037.53;4350069;32;20211;-64
2024/01/27 03:12:04;;;;;;;0.63;0.63;;;;;;;4.18;100.00;97040.81;4359262;32;20253;-61
2024/01/27 03:14:30;;;;;;;0.47;0.47;;;;;;;4.48;98.91;97044.50;4348054;32;20240;-61
2024/01/27 03:16:55;;;;;;;0.50;0.50;;;;;;;4.24;99.37;97047.88;4358304;32;20200;-61
2024/01/27 03:19:21;;;;;;;0.60;0.60;;;;;;;4.37;99.89;97039.09;4351623;32;20262;-61
2024/01/27 03:21:46;;;;;;;1.03;0.60;;;;;;;4.49;99.35;97045.31;4350129;32;20200;-61
2024/01/27 03:24:11;;;;;;;0.63;0.20;;;;;;;4.27;99.60;97041.38;4354237;32;20188;-62
2024/01/27 03:26:37;;;;;;;0.70;0.70;;;;;;;4.26;100.00;97055.53;4370826;32;20224;-61
2024/01/27 03:29:02;;;;;;;0.80;0.80;;;;;;;4.17;100.00;97056.78;4363328;32;20189;-61
2024/01/27 03:31:32;;;;;;;0.83;0.63;;;;;;;4.12;100.00;97067.94;4371708;32;23428;-61
2024/01/27 03:33:59;;;;;;;0.13;0.13;;;;;;;4.08;100.00;97064.91;4344969;32;20235;-61
2024/01/27 03:36:24;;;;;;;1.90;0.70;;;;;;;4.29;100.00;97065.63;4352688;32;20370;-61
2024/01/27 03:38:49;;;;;;;2.40;1.17;;;;;;;4.25;100.00;97074.94;4353868;32;20292;-61
2024/01/27 03:41:15;;;;;;;0.50;0.50;;;;;;;4.04;100.00;97081.28;4368902;32;20196;-61
2024/01/27 03:43:40;;;;;;;3.10;0.57;;;;;;;3.87;100.00;97080.94;4364924;32;20236;-61
2024/01/27 03:46:06;;;;;;;3.80;0.80;;;;;;;4.07;100.00;97084.31;4368203;32;20263;-61
2024/01/27 03:48:34;;;;;;;1.00;0.93;;;;;;;4.29;100.00;97089.25;4351946;32;20185;-61
2024/01/27 03:51:00;;;;;;;0.53;0.53;;;;;;;4.39;99.79;97092.22;4374118;32;20248;-61
2024/01/27 03:53:25;;;;;;;0.67;0.63;;;;;;;4.30;99.78;97096.13;4354287;32;20314;-61
2024/01/27 03:55:51;;;;;;;0.43;0.43;;;;;;;4.11;100.00;97095.22;4355736;32;20238;-61
2024/01/27 03:58:16;;;;;;;0.40;0.40;;;;;;;4.01;100.00;97100.88;4352826;32;20188;-61
2024/01/27 04:00:42;;;;;;;0.37;0.37;;;;;;;4.10;100.00;97104.91;4367251;32;20301;-64
2024/01/27 04:03:09;;;;;;;0.77;0.50;;;;;;;4.26;100.00;97110.69;4372726;32;20240;-61
2024/01/27 04:05:36;;;;;;;0.50;0.50;;;;;;;3.97;100.00;97104.13;4354042;32;20235;-61
2024/01/27 04:08:01;;;;;;;3.43;1.27;;;;;;;4.15;100.00;97096.41;4364006;32;20277;-61
2024/01/27 04:10:27;;;;;;;0.40;0.40;;;;;;;4.18;100.00;97092.53;4357743;32;20307;-61
2024/01/27 04:12:52;;;;;;;0.40;0.37;;;;;;;3.98;100.00;97096.03;4364714;32;20212;-61
2024/01/27 04:15:18;;;;;;;0.50;0.50;;;;;;;4.17;100.00;97102.22;4370605;32;20315;-61
2024/01/27 04:17:43;;;;;;;0.67;0.67;;;;;;;3.90;100.00;97104.16;4353967;32;20249;-61
2024/01/27 04:20:09;;;;;;;0.43;0.43;;;;;;;4.02;100.00;97105.13;4352430;32;20214;-64
2024/01/27 04:22:35;;;;;;;1.03;0.97;;;;;;;3.85;100.00;97096.09;4359272;32;20243;-61
2024/01/27 04:25:01;;;;;;;0.57;0.57;;;;;;;3.96;100.00;97103.31;4363640;32;20288;-61
2024/01/27 04:27:27;;;;;;;5.70;0.70;;;;;;;4.09;100.00;97102.47;4360014;32;20220;-61
2024/01/27 04:29:53;;;;;;;0.20;0.20;;;;;;;4.08;100.00;97106.13;4367643;32;20294;-61
2024/01/27 04:32:18;;;;;;;2.07;0.93;;;;;;;3.94;100.00;97105.37;4350182;32;20329;-61
2024/01/27 04:34:43;;;;;;;0.67;0.67;;;;;;;3.91;100.00;97120.72;4350397;32;20253;-61
2024/01/27 04:37:08;;;;;;;0.43;0.43;;;;;;;4.03;100.00;97114.63;4369148;32;20266;-64
2024/01/27 04:39:34;;;;;;;0.63;0.63;;;;;;;4.18;100.00;97106.47;4368761;32;20197;-61
2024/01/27 04:41:59;;;;;;;0.33;0.33;;;;;;;4.22;100.00;97107.66;4349092;32;20227;-61
2024/01/27 04:44:25;;;;;;;11.50;1.13;;;;;;;4.12;100.00;97108.12;4356790;32;20243;-61
2024/01/27 04:46:50;;;;;;;0.73;0.73;;;;;;;4.13;100.00;97106.31;4351517;32;20288;-61
2024/01/27 04:49:16;;;;;;;0.87;0.80;;;;;;;4.20;100.00;97114.13;4350063;32;20311;-61
2024/01/27 04:51:41;;;;;;;0.80;0.80;;;;;;;3.77;100.00;97117.31;4355430;32;20216;-61
2024/01/27 04:54:07;;;;;;;0.90;0.90;;;;;;;3.86;100.00;97121.34;4364566;32;20281;-61
2024/01/27 04:56:32;;;;;;;0.43;0.43;;;;;;;3.68;100.00;97118.56;4366406;32;20193;-61
2024/01/27 04:58:58;;;;;;;1.80;0.87;;;;;;;3.95;100.00;97114.81;4366924;32;20286;-61
2024/01/27 05:01:23;;;;;;;0.50;0.50;;;;;;;4.11;100.00;97111.78;4363922;32;20243;-61
2024/01/27 05:03:48;;;;;;;0.40;0.40;;;;;;;3.82;100.00;97116.69;4369835;32;20216;-61
2024/01/27 05:06:14;;;;;;;0.40;0.40;;;;;;;4.01;100.00;97119.25;4372438;32;20236;-61
2024/01/27 05:08:39;;;;;;;1.20;0.53;;;;;;;4.15;100.00;97125.28;4363301;32;20257;-61
2024/01/27 05:11:05;;;;;;;0.30;0.30;;;;;;;3.94;100.00;97129.00;4362628;32;20197;-61
2024/01/27 05:13:30;;;;;;;0.63;0.63;;;;;;;3.99;100.00;97133.59;4362494;32;20211;-61
2024/01/27 05:15:56;;;;;;;0.30;0.30;;;;;;;3.71;100.00;97129.44;4370769;32;20215;-61
2024/01/27 05:18:21;;;;;;;0.73;0.63;;;;;;;3.94;100.00;97131.62;4365022;32;20238;-61
2024/01/27 05:20:47;;;;;;;1.53;1.10;;;;;;;3.88;100.00;97142.13;4371904;32;20380;-61
2024/01/27 05:23:12;;;;;;;0.27;0.27;;;;;;;3.89;100.00;97134.06;4349353;32;20232;-61
2024/01/27 05:25:38;;;;;;;0.60;0.60;;;;;;;3.75;100.00;97135.06;4373879;32;20216;-61
2024/01/27 05:28:04;;;;;;;1.03;0.70;;;;;;;3.62;100.00;97138.53;4372585;32;20244;-61
2024/01/27 05:30:29;;;;;;;1.17;0.60;;;;;;;3.67;100.00;97141.38;4348803;32;20318;-61
2024/01/27 05:32:54;;;;;;;0.63;0.60;;;;;;;3.55;100.00;97152.66;4361128;32;20200;-61
2024/01/27 05:35:20;;;;;;;0.50;0.50;;;;;;;3.69;100.00;97149.03;4365481;32;20244;-61
2024/01/27 05:37:45;;;;;;;0.43;0.43;;;;;;;3.83;100.00;97149.81;4366614;32;20208;-61
2024/01/27 05:40:11;;;;;;;4.70;0.60;;;;;;;3.96;100.00;97161.06;4361606;32;20180;-61
2024/01/27 05:42:36;;;;;;;0.20;0.20;;;;;;;4.22;100.00;97159.38;4362921;32;20275;-61
2024/01/27 05:45:02;;;;;;;0.30;0.30;;;;;;;4.27;99.53;97162.22;4349900;32;20241;-61
2024/01/27 05:47:27;;;;;;;0.20;0.20;;;;;;;4.17;100.00;97167.06;4355046;32;20216;-61
2024/01/27 05:49:52;;;;;;;3.30;0.87;;;;;;;4.13;100.00;97164.88;4375001;32;20246;-61
2024/01/27 05:52:18;;;;;;;1.43;0.93;;;;;;;3.96;100.00;97168.94;4369238;32;20245;-61
2024/01/27 05:54:43;;;;;;;1.23;1.23;;;;;;;4.09;100.00;97168.94;4349251;32;20247;-61
2024/01/27 05:57:08;;;;;;;0.40;0.40;;;;;;;3.90;100.00;97168.97;4367333;32;20224;-61
2024/01/27 05:59:34;;;;;;;0.83;0.83;;;;;;;4.22;100.00;97175.16;4350315;32;20240;-61
2024/01/27 06:01:59;;;;;;;1.47;0.70;;;;;;;4.35;100.00;97172.50;4351513;32;20301;-61
2024/01/27 06:04:24;;;;;;;0.50;0.50;;;;;;;4.32;99.45;97181.59;4362325;32;20251;-61
2024/01/27 06:06:50;;;;;;;3.03;1.37;;;;;;;4.21;100.00;97190.09;4366666;32;20233;-61
2024/01/27 06:09:15;;;;;;;0.60;0.60;;;;;;;4.36;99.58;97187.25;4355125;32;20192;-61
2024/01/27 06:11:41;;;;;;;2.07;0.63;;;;;;;4.10;100.00;97186.31;4369709;32;20196;-61
2024/01/27 06:14:06;;;;;;;0.53;0.33;;;;;;;4.03;100.00;97190.75;4358535;32;20216;-61
2024/01/27 06:16:33;;;;;;;2.93;1.17;;;;;;;3.91;100.00;97189.78;4362171;32;20193;-61
2024/01/27 06:18:58;;;;;;;0.43;0.43;;;;;;;3.74;100.00;97189.37;4363253;32;20220;-61
2024/01/27 06:21:23;;;;;;;0.93;0.60;;;;;;;3.85;100.00;97195.84;4349539;32;20293;-61
2024/01/27 06:23:49;;;;;;;1.87;0.73;;;;;;;3.84;100.00;97199.47;4363577;32;20359;-61
2024/01/27 06:26:14;;;;;;;0.80;0.80;;;;;;;3.99;100.00;97207.94;4347918;32;20294;-61
2024/01/27 06:28:40;;;;;;;0.50;0.50;;;;;;;4.08;100.00;97198.03;4358090;32;20216;-63
2024/01/27 06:31:07;;;;;;;0.30;0.30;;;;;;;4.25;100.00;97201.00;4358091;32;20246;-61
2024/01/27 06:33:32;;;;;;;10.60;1.37;;;;;;;4.26;99.64;97206.06;4368199;32;20296;-61
2024/01/27 06:35:58;;;;;;;0.50;0.50;;;;;;;4.03;100.00;97203.87;4356500;32;20318;-61
2024/01/27 06:38:23;;;;;;;0.90;0.57;;;;;;;3.83;100.00;97203.09;4368678;32;20239;-61
2024/01/27 06:40:48;;;;;;;2.20;0.77;;;;;;;3.79;100.00;97207.16;4349919;32;20203;-61
2024/01/27 06:43:14;;;;;;;0.37;0.37;;;;;;;3.65;100.00;97206.34;4359865;32;20277;-61
2024/01/27 06:45:40;;;;;;;0.60;0.60;;;;;;;3.81;100.00;97213.00;4355728;32;20370;-64
2024/01/27 06:48:06;;;;;;;0.33;0.33;;;;;;;3.77;100.00;97209.16;4372121;32;20197;-61
2024/01/27 06:50:32;;;;;;;0.83;0.60;;;;;;;3.93;100.00;97213.22;4350957;32;20200;-61
2024/01/27 06:52:57;;;;;;;0.73;0.73;;;;;;;3.90;100.00;97209.16;4363534;32;20292;-61
2024/01/27 06:55:22;;;;;;;0.87;0.47;;;;;;;4.06;100.00;97211.34;4360916;32;20256;-61
2024/01/27 06:57:48;;;;;;;1.00;1.00;;;;;;;3.79;100.00;97210.56;4365028;32;20231;-61
2024/01/27 07:00:14;;;;;;;2.40;0.90;;;;;;;3.73;100.00;97215.84;4352057;32;20205;-61
2024/01/27 07:02:43;;;;;;;1.63;1.17;;;;;;;3.62;100.00;97216.44;4363764;32;20193;-61
2024/01/27 07:05:09;;;;;;;0.60;0.60;;;;;;;3.60;100.00;97226.31;4363990;32;20238;-61
2024/01/27 07:07:35;;;;;;;1.10;1.03;;;;;;;3.58;100.00;97223.09;4348098;32;20307;-61
2024/01/27 07:10:00;;;;;;;0.40;0.40;;;;;;;3.77;100.00;97211.78;4364055;32;20193;-61
2024/01/27 07:12:26;;;;;;;1.40;0.67;;;;;;;4.08;100.00;97211.97;4364337;32;20197;-61
2024/01/27 07:14:52;;;;;;;0.70;0.70;;;;;;;3.80;100.00;97214.81;4352962;32;20188;-61
2024/01/27 07:17:18;;;;;;;0.80;0.80;;;;;;;3.87;100.00;97214.81;4358698;32;20268;-61
2024/01/27 07:19:43;;;;;;;0.60;0.60;;;;;;;3.92;100.00;97222.91;4367417;32;20296;-61
2024/01/27 07:22:08;;;;;;;1.03;1.03;;;;;;;3.80;100.00;97220.06;4345127;32;20192;-61
2024/01/27 07:24:34;;;;;;;1.00;1.00;;;;;;;3.76;100.00;97225.91;4350830;32;20358;-61
2024/01/27 07:27:00;;;;;;;1.37;0.87;;;;;;;3.91;100.00;97223.09;4359607;32;20299;-61
2024/01/27 07:29:26;;;;;;;1.07;1.03;;;;;;;4.02;100.00;97228.53;4350239;32;20200;-61
2024/01/27 07:31:52;;;;;;;0.70;0.70;;;;;;;4.08;100.00;97232.97;4361343;32;20286;-61
2024/01/27 07:34:17;;;;;;;0.37;0.37;;;;;;;3.85;100.00;97232.59;4364427;32;20252;-61
2024/01/27 07:36:44;;;;;;;1.47;1.27;;;;;;;4.06;100.00;97231.56;4357982;32;20252;-61
2024/01/27 07:39:09;;;;;;;0.90;0.90;;;;;;;3.98;100.00;97232.56;4375103;32;20192;-61
2024/01/27 07:41:35;;;;;;;0.77;0.77;;;;;;;4.12;100.00;97228.94;4350085;32;20303;-61
2024/01/27 07:44:10;;;;;;;0.90;0.77;;;;;;;4.17;100.00;97230.91;4352395;32;20304;-61
2024/01/27 07:46:40;;;;;;;0.87;0.83;;;;;;;4.34;100.00;97231.31;4347802;32;20249;-61
2024/01/27 07:49:06;;;;;;;0.60;0.60;;;;;;;4.29;100.00;97233.72;4346672;32;20326;-61
2024/01/27 07:51:32;;;;;;;0.90;0.90;;;;;;;4.40;100.00;97240.97;4363543;32;20326;-61
2024/01/27 07:54:01;;;;;;;4.13;1.63;;;;;;;4.32;100.00;97241.22;4359020;32;20293;-61
2024/01/27 07:56:27;;;;;;;0.67;0.67;;;;;;;4.14;100.00;97237.41;4358763;32;20197;-61
2024/01/27 07:58:52;;;;;;;1.40;1.40;;;;;;;4.14;100.00;97233.97;4350409;32;20317;-61
2024/01/27 08:01:18;;;;;;;4.67;1.17;;;;;;;4.34;100.00;97236.56;4358630;32;20208;-61
2024/01/27 08:03:44;;;;;;;0.50;0.50;;;;;;;4.38;100.00;97238.53;4355191;32;20212;-61
2024/01/27 08:06:26;;;;;;;1.00;1.00;;;;;;;4.18;100.00;97235.16;4367997;32;20219;-61
2024/01/27 08:08:52;;;;;;;0.80;0.80;;;;;;;3.96;100.00;97239.84;4364779;32;20258;-61
2024/01/27 08:11:17;;;;;;;0.67;0.67;;;;;;;4.03;100.00;97245.91;4354866;32;20305;-61
2024/01/27 08:13:43;;;;;;;1.13;1.13;;;;;;;4.30;100.00;97241.41;4349835;32;20223;-61
2024/01/27 08:16:14;;;;;;;2.97;1.77;;;;;;;4.35;100.00;97243.44;4355288;32;20291;-61
2024/01/27 08:18:42;;;;;;;1.30;1.23;;;;;;;3.91;100.00;97239.66;4361736;32;20202;-61
2024/01/27 08:21:08;;;;;;;1.07;1.07;;;;;;;3.79;100.00;97246.50;4352049;32;20292;-61
2024/01/27 08:23:33;;;;;;;0.60;0.60;;;;;;;3.75;100.00;97243.47;4363513;32;20338;-61
2024/01/27 08:25:59;;;;;;;2.47;1.03;;;;;;;3.82;100.00;97240.88;4357097;32;20328;-61
2024/01/27 08:28:24;;;;;;;1.07;1.07;;;;;;;4.17;100.00;97248.50;4363947;32;20359;-61
2024/01/27 08:30:50;;;;;;;0.60;0.60;;;;;;;4.04;100.00;97250.13;4368262;32;20219;-61
2024/01/27 08:33:15;;;;;;;1.27;1.20;;;;;;;4.13;100.00;97250.75;4365857;32;20298;-61
2024/01/27 08:35:41;;;;;;;9.43;1.97;;;;;;;3.99;100.00;97257.00;4354788;32;20192;-62
2024/01/27 08:38:08;;;;;;;1.23;1.23;;;;;;;4.24;100.00;97252.72;4359137;32;20251;-60
2024/01/27 08:40:34;;;;;;;1.10;1.10;;;;;;;4.18;100.00;97258.78;4366914;32;20215;-60
2024/01/27 08:42:59;;;;;;;1.63;1.53;;;;;;;4.43;100.00;97261.56;4362525;32;20305;-60
2024/01/27 08:45:26;;;;;;;2.33;1.87;;;;;;;4.62;99.88;97265.97;4371552;32;20275;-61
2024/01/27 08:47:51;;;;;;;3.03;1.10;;;;;;;4.47;100.00;97257.53;4355711;32;20196;-60
2024/01/27 08:50:16;;;;;;;0.87;0.87;;;;;;;4.22;100.00;97267.06;4368714;32;20296;-61
2024/01/27 08:52:42;;;;;;;7.73;1.63;;;;;;;4.21;100.00;97262.84;4367126;32;20188;-61
2024/01/27 08:55:07;;;;;;;0.90;0.90;;;;;;;4.06;100.00;97266.50;4370766;32;20192;-61
2024/01/27 08:57:33;;;;;;;1.30;1.20;;;;;;;4.02;100.00;97260.03;4361927;32;20236;-61
2024/01/27 08:59:58;;;;;;;1.43;1.33;;;;;;;4.12;100.00;97260.44;4360901;32;20188;-61
2024/01/27 09:02:23;;;;;;;1.40;1.27;;;;;;;4.23;100.00;97252.94;4363292;32;20200;-60
2024/01/27 09:04:49;;;;;;;0.50;0.50;;;;;;;4.32;100.00;97259.59;4369919;32;20201;-60
2024/01/27 09:07:14;;;;;;;2.27;2.00;;;;;;;4.45;100.00;97268.25;4359064;32;20226;-61
2024/01/27 09:09:40;;;;;;;1.10;0.97;;;;;;;4.32;100.00;97263.03;4362400;32;20193;-61
2024/01/27 09:12:06;;;;;;;0.60;0.60;;;;;;;4.13;100.00;97271.75;4352323;32;20224;-60
2024/01/27 09:14:33;;;;;;;1.40;1.40;;;;;;;4.24;100.00;97267.69;4352437;32;20318;-61
2024/01/27 09:16:58;;;;;;;1.30;1.20;;;;;;;4.49;100.00;97266.00;4363791;32;20201;-61
2024/01/27 09:19:24;;;;;;;5.07;1.83;;;;;;;4.33;100.00;97269.09;4361510;32;20306;-61
2024/01/27 09:21:49;;;;;;;0.70;0.70;;;;;;;4.58;99.64;97275.28;4371426;32;20205;-60
2024/01/27 09:24:15;;;;;;;0.63;0.63;;;;;;;4.60;99.37;97267.19;4364956;32;20251;-61
2024/01/27 09:26:40;;;;;;;1.80;1.70;;;;;;;4.61;98.98;97272.25;4346597;32;20197;-60
2024/01/27 09:29:06;;;;;;;5.07;2.17;;;;;;;4.67;99.01;97271.41;4363606;32;20212;-61
2024/01/27 09:31:32;;;;;;;1.83;1.73;;;;;;;4.60;99.36;97269.81;4348955;32;20223;-60
2024/01/27 09:33:57;;;;;;;2.33;1.53;;;;;;;4.66;98.68;97271.63;4366679;32;20288;-61
2024/01/27 09:36:23;;;;;;;2.63;1.40;;;;;;;4.49;98.17;97266.81;4362259;32;20248;-61
2024/01/27 09:38:48;;;;;;;0.90;0.90;;;;;;;4.48;98.82;97267.84;4356141;32;20216;-63
2024/01/27 09:41:15;;;;;;;1.90;1.67;;;;;;;4.76;97.60;97280.69;4362601;32;20221;-61
2024/01/27 09:43:44;;;;;;;1.63;1.53;;;;;;;4.62;98.13;97276.47;4359974;32;20240;-61
2024/01/27 09:46:17;;;;;;;1.67;1.53;;;;;;;4.60;97.86;97283.75;4344484;32;20339;-60
2024/01/27 09:48:43;;;;;;;1.10;1.10;;;;;;;4.66;96.89;97288.19;4366504;32;20289;-61
2024/01/27 09:51:10;;;;;;;1.23;0.87;;;;;;;4.73;97.39;97294.25;4369470;32;20329;-60
2024/01/27 09:53:35;;;;;;;11.43;1.50;;;;;;;4.77;95.84;97294.66;4353678;32;20331;-61
2024/01/27 09:56:03;;;;;;;6.67;0.97;;;;;;;4.75;96.89;97302.75;4356085;32;20364;-61
2024/01/27 09:58:29;;;;;;;1.00;1.00;;;;;;;4.76;96.32;97299.09;4353054;32;20237;-62
2024/01/27 10:00:57;;;;;;;1.43;1.23;;;;;;;4.95;95.15;97297.41;4356578;32;20281;-62
2024/01/27 10:03:24;;;;;;;0.90;0.90;;;;;;;4.95;96.08;97296.59;4355971;32;20319;-62
2024/01/27 10:05:51;;;;;;;1.57;1.40;;;;;;;5.01;94.99;97306.28;4359555;32;20307;-61
2024/01/27 10:08:17;;;;;;;1.77;1.67;;;;;;;5.11;93.96;97294.31;4350556;32;20387;-62
2024/01/27 10:10:42;;;;;;;0.83;0.80;;;;;;;4.99;94.86;97298.59;4368959;32;20363;-62
2024/01/27 10:13:10;;;;;;;1.90;1.43;;;;;;;4.94;94.42;97306.31;4352845;32;20197;-62
2024/01/27 10:15:35;;;;;;;0.73;0.73;;;;;;;5.06;94.68;97293.31;4371407;32;20246;-61
2024/01/27 10:18:12;;;;;;;1.37;1.27;;;;;;;5.23;94.40;97299.69;4361808;32;20392;-62
2024/01/27 10:20:39;;;;;;;1.13;1.13;;;;;;;5.25;94.88;97305.56;4358923;32;20192;-62
2024/01/27 10:23:12;;;;;;;1.33;1.33;;;;;;;5.48;93.91;97300.56;4351515;32;20296;-62
2024/01/27 10:25:41;;;;;;;1.10;1.10;;;;;;;5.29;93.04;97296.22;4356907;32;20329;-62
2024/01/27 10:28:13;;;;;;;1.53;1.43;;;;;;;5.55;92.68;97286.56;4352841;32;20308;-61
2024/01/27 10:30:38;;;;;;;1.10;1.10;;;;;;;5.39;92.94;97278.19;4364912;32;20341;-62
2024/01/27 10:33:04;;;;;;;2.87;1.60;;;;;;;5.39;93.54;97287.91;4360910;32;20296;-62
2024/01/27 10:35:30;;;;;;;1.70;1.47;;;;;;;5.35;93.99;97287.50;4363400;32;20247;-62
2024/01/27 10:37:56;;;;;;;13.80;1.20;;;;;;;5.34;92.55;97283.25;4360066;32;20237;-62
2024/01/27 10:40:24;;;;;;;1.13;0.77;;;;;;;5.57;90.47;97279.28;4354012;32;20389;-62
2024/01/27 10:43:02;;;;;;;1.07;1.07;;;;;;;5.78;89.66;97277.09;4350843;32;20301;-62
2024/01/27 10:45:39;;;;;;;3.63;1.70;;;;;;;5.69;88.58;97280.19;4358911;32;20324;-62
2024/01/27 10:48:06;;;;;;;0.70;0.70;;;;;;;5.71;89.00;97273.69;4359704;32;20288;-62
2024/01/27 10:50:37;;;;;;;1.10;1.03;;;;;;;5.74;89.05;97269.84;4366041;32;20413;-66
2024/01/27 10:53:07;;;;;;;1.80;1.70;;;;;;;5.77;87.89;97270.22;4352368;32;20297;-66
2024/01/27 10:55:36;;;;;;;0.77;0.77;;;;;;;5.62;88.85;97276.78;4364619;32;20360;-66
2024/01/27 10:58:02;;;;;;;2.10;1.50;;;;;;;5.78;89.36;97266.56;4362755;32;20369;-66
2024/01/27 11:00:30;;;;;;;1.27;1.27;;;;;;;5.92;88.20;97263.84;4358368;32;20288;-66
2024/01/27 11:02:58;;;;;;;1.53;1.43;;;;;;;5.91;88.77;97260.41;4358779;32;20321;-66
2024/01/27 11:05:24;;;;;;;4.43;2.10;;;;;;;5.99;87.11;97261.97;4337784;32;20346;-66
2024/01/27 11:07:51;;;;;;;0.77;0.77;;;;;;;6.12;86.89;97260.03;4358240;32;20392;-66
2024/01/27 11:10:18;;;;;;;1.53;1.27;;;;;;;6.17;86.65;97254.09;4349272;32;20201;-66
2024/01/27 11:12:44;;;;;;;1.33;1.10;;;;;;;5.88;85.64;97255.53;4361664;32;20281;-65
2024/01/27 11:15:10;;;;;;;0.93;0.93;;;;;;;6.18;84.75;97251.25;4358258;32;20353;-66
2024/01/27 11:17:42;;;;;;;0.73;0.73;;;;;;;6.06;85.20;97255.59;4366114;32;20289;-66
2024/01/27 11:20:09;;;;;;;2.60;1.47;;;;;;;5.70;85.44;97250.22;4364482;32;20273;-66
2024/01/27 11:22:34;;;;;;;1.00;1.00;;;;;;;5.95;86.08;97245.78;4359319;32;20284;-66
2024/01/27 11:25:12;;;;;;;1.80;1.70;;;;;;;6.27;84.78;97240.41;4357996;32;20398;-66
2024/01/27 11:27:39;;;;;;;4.67;0.97;;;;;;;6.50;83.54;97238.75;4356992;32;20287;-65
2024/01/27 11:30:06;;;;;;;1.57;1.00;;;;;;;6.70;83.51;97235.88;4355438;32;20289;-65